createdAt,value
2022-12-31T00:02:13.240Z,-1.36
2022-12-31T00:04:43.148Z,-1.29
2022-12-31T00:07:13.044Z,-1.22
2022-12-31T00:09:44.723Z,-1.20
2022-12-31T00:12:14.588Z,-1.22
2022-12-31T00:14:44.443Z,-1.15
2022-12-31T00:17:14.303Z,-1.11
2022-12-31T00:19:44.263Z,-1.09
2022-12-31T00:22:14.127Z,-0.98
2022-12-31T00:24:45.640Z,-0.95
2022-12-31T00:27:15.686Z,-0.89
2022-12-31T00:29:45.695Z,-0.72
2022-12-31T00:32:15.577Z,-0.71
2022-12-31T00:34:45.321Z,-0.69
2022-12-31T00:37:15.256Z,-0.65
2022-12-31T00:39:46.683Z,-0.59
2022-12-31T00:42:16.677Z,-0.49
2022-12-31T00:44:46.478Z,-0.44
2022-12-31T00:50:49.687Z,-0.07
2022-12-31T00:53:19.684Z,0.07
2022-12-31T00:55:49.765Z,0.06
2022-12-31T00:58:19.895Z,0.03
2022-12-31T01:00:49.676Z,0.09
2022-12-31T01:03:19.654Z,0.04
2022-12-31T01:05:51.495Z,0.03
2022-12-31T01:08:21.529Z,0.01
2022-12-31T01:11:09.559Z,-0.01
2022-12-31T01:13:39.385Z,0.05
2022-12-31T01:16:14.862Z,0.07
2022-12-31T01:18:45.311Z,0.03
2022-12-31T01:21:18.003Z,0.10
2022-12-31T01:23:48.031Z,0.20
2022-12-31T01:26:19.574Z,0.13
2022-12-31T01:28:50.125Z,0.03
2022-12-31T01:31:24.332Z,0.01
2022-12-31T01:33:54.923Z,-0.10
2022-12-31T01:36:28.416Z,-0.07
2022-12-31T01:39:00.856Z,-0.05
2022-12-31T01:41:33.984Z,-0.12
2022-12-31T01:44:25.374Z,-0.13
2022-12-31T01:46:59.014Z,-0.09
2022-12-31T01:49:37.925Z,-0.12
2022-12-31T01:52:14.285Z,-0.23
2022-12-31T01:54:48.594Z,-0.21
2022-12-31T01:57:19.491Z,-0.20
2022-12-31T01:59:49.397Z,-0.06
2022-12-31T02:02:20.041Z,-0.15
2022-12-31T02:04:53.702Z,-0.27
2022-12-31T02:07:25.976Z,-0.26
2022-12-31T02:09:57.030Z,-0.33
2022-12-31T02:12:27.066Z,-0.33
2022-12-31T02:14:58.096Z,-0.34
2022-12-31T02:17:39.061Z,-0.30
2022-12-31T02:20:38.962Z,-0.29
2022-12-31T02:24:01.341Z,-0.27
2022-12-31T02:26:57.997Z,-0.23
2022-12-31T02:30:06.971Z,-0.28
2022-12-31T02:32:52.376Z,-0.41
2022-12-31T02:35:29.179Z,-0.53
2022-12-31T02:38:05.071Z,-0.53
2022-12-31T02:40:37.299Z,-0.46
2022-12-31T02:43:07.385Z,-0.54
2022-12-31T02:45:43.314Z,-0.51
2022-12-31T02:48:29.047Z,-0.48
2022-12-31T02:51:18.141Z,-0.51
2022-12-31T02:54:10.176Z,-0.47
2022-12-31T02:56:51.421Z,-0.46
2022-12-31T02:59:45.161Z,-0.44
2022-12-31T03:02:20.658Z,-0.50
2022-12-31T03:04:54.720Z,-0.57
2022-12-31T03:07:27.361Z,-0.55
2022-12-31T03:09:57.674Z,-0.52
2022-12-31T03:12:47.825Z,-0.42
2022-12-31T03:15:24.178Z,-0.37
2022-12-31T03:18:00.502Z,-0.41
2022-12-31T03:20:52.009Z,-0.40
2022-12-31T03:23:25.782Z,-0.39
2022-12-31T03:25:55.336Z,-0.38
2022-12-31T03:28:27.338Z,-0.30
2022-12-31T03:31:00.158Z,-0.22
2022-12-31T03:33:34.227Z,-0.23
2022-12-31T03:36:08.730Z,-0.24
2022-12-31T03:38:38.898Z,-0.20
2022-12-31T03:41:11.157Z,-0.31
2022-12-31T03:43:41.082Z,-0.46
2022-12-31T03:46:10.965Z,-0.50
2022-12-31T03:51:48.945Z,-0.55
2022-12-31T03:54:18.718Z,-0.42
2022-12-31T03:56:49.675Z,-0.37
2022-12-31T03:59:19.530Z,-0.36
2022-12-31T04:01:49.710Z,-0.34
2022-12-31T04:04:19.538Z,-0.32
2022-12-31T04:06:51.545Z,-0.24
2022-12-31T04:09:21.295Z,-0.14
2022-12-31T04:11:51.398Z,-0.04
2022-12-31T04:14:21.584Z,-0.01
2022-12-31T04:16:51.439Z,0.01
2022-12-31T04:19:21.507Z,0.05
2022-12-31T04:21:53.021Z,0.01
2022-12-31T04:24:22.795Z,-0.03
2022-12-31T04:26:52.852Z,-0.08
2022-12-31T04:29:22.935Z,-0.08
2022-12-31T04:31:52.850Z,-0.07
2022-12-31T04:34:23.516Z,-0.07
2022-12-31T04:36:55.008Z,-0.08
2022-12-31T04:39:25.076Z,-0.05
2022-12-31T04:41:55.922Z,-0.01
2022-12-31T04:44:25.979Z,0.09
2022-12-31T04:46:55.856Z,0.14
2022-12-31T04:49:25.746Z,0.14
2022-12-31T04:51:57.119Z,0.16
2022-12-31T04:54:27.122Z,0.10
2022-12-31T04:56:57.057Z,0.12
2022-12-31T04:59:27.286Z,0.15
2022-12-31T05:01:57.171Z,0.16
2022-12-31T05:04:27.450Z,0.15
2022-12-31T05:06:58.718Z,0.17
2022-12-31T05:09:30.187Z,0.22
2022-12-31T05:11:59.983Z,0.24
2022-12-31T05:14:29.942Z,0.26
2022-12-31T05:17:01.431Z,0.29
2022-12-31T05:19:31.421Z,0.31
2022-12-31T05:22:20.580Z,0.33
2022-12-31T05:24:52.395Z,0.06
2022-12-31T05:27:22.179Z,-0.08
2022-12-31T05:29:52.078Z,-0.14
2022-12-31T05:32:21.756Z,-0.15
2022-12-31T05:34:51.807Z,-0.26
2022-12-31T05:37:23.156Z,-0.33
2022-12-31T05:39:52.959Z,-0.27
2022-12-31T05:42:22.817Z,-0.23
2022-12-31T05:44:52.883Z,-0.19
2022-12-31T05:47:22.983Z,-0.29
2022-12-31T05:49:52.811Z,-0.29
2022-12-31T05:52:24.670Z,-0.31
2022-12-31T05:54:54.606Z,-0.27
2022-12-31T05:57:24.553Z,-0.15
2022-12-31T05:59:54.679Z,-0.19
2022-12-31T06:02:25.339Z,-0.23
2022-12-31T06:04:55.468Z,-0.21
2022-12-31T06:07:26.923Z,-0.29
2022-12-31T06:09:56.944Z,-0.29
2022-12-31T06:12:26.782Z,-0.26
2022-12-31T06:14:56.645Z,-0.26
2022-12-31T06:17:30.459Z,-0.25
2022-12-31T06:20:01.427Z,-0.35
2022-12-31T06:22:32.957Z,-0.33
2022-12-31T06:25:02.813Z,-0.32
2022-12-31T06:27:33.110Z,-0.40
2022-12-31T06:30:02.955Z,-0.37
2022-12-31T06:32:32.953Z,-0.34
2022-12-31T06:35:02.840Z,-0.27
2022-12-31T06:37:34.155Z,-0.28
2022-12-31T06:40:04.142Z,-0.18
2022-12-31T06:42:34.569Z,-0.09
2022-12-31T06:45:04.432Z,-0.04
2022-12-31T06:47:34.379Z,0.02
2022-12-31T06:51:49.063Z,0.14
2022-12-31T06:54:18.923Z,0.20
2022-12-31T06:56:49.702Z,0.27
2022-12-31T06:59:29.563Z,0.37
2022-12-31T07:02:19.747Z,0.47
2022-12-31T07:05:33.141Z,0.59
2022-12-31T07:08:19.098Z,0.74
2022-12-31T07:10:57.676Z,0.94
2022-12-31T07:14:11.723Z,1.12
2022-12-31T07:16:58.204Z,1.30
2022-12-31T07:19:45.807Z,1.49
2022-12-31T07:22:18.624Z,1.69
2022-12-31T07:24:50.247Z,1.89
2022-12-31T07:27:44.100Z,2.11
2022-12-31T07:30:16.957Z,2.31
2022-12-31T07:33:07.735Z,2.50
2022-12-31T07:35:53.006Z,2.71
2022-12-31T07:38:34.261Z,2.90
2022-12-31T07:41:14.444Z,3.09
2022-12-31T07:44:00.767Z,3.22
2022-12-31T07:46:41.096Z,3.44
2022-12-31T07:49:15.073Z,3.65
2022-12-31T07:51:45.951Z,3.90
2022-12-31T07:54:15.982Z,4.03
2022-12-31T07:56:48.279Z,4.24
2022-12-31T07:59:37.819Z,4.64
2022-12-31T08:02:18.725Z,4.94
2022-12-31T08:05:02.203Z,5.15
2022-12-31T08:07:41.887Z,5.38
2022-12-31T08:10:19.138Z,5.70
2022-12-31T08:12:52.537Z,6.03
2022-12-31T08:15:30.025Z,6.35
2022-12-31T08:18:01.303Z,6.69
2022-12-31T08:20:35.468Z,6.99
2022-12-31T08:23:21.927Z,7.31
2022-12-31T08:26:13.681Z,7.58
2022-12-31T08:29:10.443Z,7.85
2022-12-31T08:31:49.926Z,8.07
2022-12-31T08:34:28.130Z,8.22
2022-12-31T08:37:08.696Z,8.32
2022-12-31T08:39:57.999Z,8.44
2022-12-31T08:42:37.695Z,8.50
2022-12-31T08:45:19.264Z,8.57
2022-12-31T08:48:00.488Z,8.62
2022-12-31T08:50:32.036Z,8.66
2022-12-31T08:53:03.199Z,8.57
2022-12-31T08:55:34.358Z,8.42
2022-12-31T08:58:22.056Z,8.30
2022-12-31T09:01:00.131Z,8.20
2022-12-31T09:03:48.000Z,8.14
2022-12-31T09:06:28.159Z,8.09
2022-12-31T09:09:05.602Z,8.09
2022-12-31T09:11:50.156Z,8.05
2022-12-31T09:14:43.050Z,8.04
2022-12-31T09:17:42.267Z,8.06
2022-12-31T09:20:21.612Z,8.11
2022-12-31T09:22:53.133Z,8.14
2022-12-31T09:25:25.290Z,8.12
2022-12-31T09:28:12.098Z,8.11
2022-12-31T09:30:51.532Z,8.11
2022-12-31T09:33:42.363Z,8.21
2022-12-31T09:36:17.885Z,8.30
2022-12-31T09:38:57.497Z,8.38
2022-12-31T09:42:03.496Z,8.41
2022-12-31T09:45:18.340Z,8.48
2022-12-31T09:52:03.959Z,8.74
2022-12-31T09:54:49.222Z,8.83
2022-12-31T09:57:36.343Z,8.92
2022-12-31T10:00:15.170Z,8.99
2022-12-31T10:03:16.414Z,9.02
2022-12-31T10:06:07.196Z,8.99
2022-12-31T10:09:02.000Z,8.95
2022-12-31T10:11:46.378Z,8.92
2022-12-31T10:14:46.921Z,8.91
2022-12-31T10:17:32.281Z,8.91
2022-12-31T10:20:47.436Z,8.95
2022-12-31T10:23:52.630Z,8.99
2022-12-31T10:27:03.414Z,9.05
2022-12-31T10:29:47.261Z,9.08
2022-12-31T10:32:27.798Z,9.10
2022-12-31T10:35:17.700Z,9.14
2022-12-31T10:37:59.516Z,9.26
2022-12-31T10:40:59.308Z,9.33
2022-12-31T10:44:49.821Z,9.34
2022-12-31T10:48:03.541Z,9.34
2022-12-31T10:51:22.003Z,9.38
2022-12-31T10:54:40.581Z,9.46
2022-12-31T10:57:56.262Z,9.53
2022-12-31T11:00:32.942Z,9.51
2022-12-31T11:04:03.341Z,9.53
2022-12-31T11:07:29.659Z,9.55
2022-12-31T11:10:44.916Z,9.59
2022-12-31T11:14:03.610Z,9.65
2022-12-31T11:16:59.104Z,9.70
2022-12-31T11:19:43.478Z,9.75
2022-12-31T11:22:42.143Z,9.76
2022-12-31T11:25:40.677Z,9.69
2022-12-31T11:28:55.189Z,9.66
2022-12-31T11:31:52.745Z,9.67
2022-12-31T11:34:46.597Z,9.67
2022-12-31T11:37:39.365Z,9.63
2022-12-31T11:40:42.490Z,9.61
2022-12-31T11:43:28.650Z,9.61
2022-12-31T11:46:36.253Z,9.63
2022-12-31T11:49:23.096Z,9.64
2022-12-31T11:52:28.501Z,9.65
2022-12-31T11:55:30.242Z,9.58
2022-12-31T11:58:10.521Z,9.56
2022-12-31T12:00:42.211Z,9.54
2022-12-31T12:03:14.522Z,9.49
2022-12-31T12:05:44.383Z,9.49
2022-12-31T12:08:15.298Z,9.48
2022-12-31T12:10:49.399Z,9.49
2022-12-31T12:13:26.321Z,9.50
2022-12-31T12:16:02.319Z,9.48
2022-12-31T12:18:44.577Z,9.43
2022-12-31T12:21:18.497Z,9.39
2022-12-31T12:23:59.393Z,9.36
2022-12-31T12:26:36.312Z,9.35
2022-12-31T12:29:14.739Z,9.36
2022-12-31T12:31:55.608Z,9.33
2022-12-31T12:34:29.876Z,9.30
2022-12-31T12:36:59.963Z,9.26
2022-12-31T12:39:33.456Z,9.23
2022-12-31T12:42:07.367Z,9.25
2022-12-31T12:44:37.444Z,9.26
2022-12-31T12:47:10.313Z,9.20
2022-12-31T12:52:09.848Z,9.14
2022-12-31T12:55:00.404Z,9.09
2022-12-31T12:57:40.396Z,9.03
2022-12-31T13:00:21.337Z,8.97
2022-12-31T13:03:28.116Z,8.95
2022-12-31T13:06:20.750Z,8.93
2022-12-31T13:09:15.818Z,8.91
2022-12-31T13:15:17.475Z,8.85
2022-12-31T13:18:02.634Z,8.81
2022-12-31T13:20:39.964Z,8.77
2022-12-31T13:23:23.855Z,8.73
2022-12-31T13:26:09.857Z,8.70
2022-12-31T13:28:43.068Z,8.68
2022-12-31T13:31:17.388Z,8.64
2022-12-31T13:33:52.999Z,8.62
2022-12-31T13:36:25.838Z,8.60
2022-12-31T13:38:59.117Z,8.62
2022-12-31T13:41:36.585Z,8.59
2022-12-31T13:44:16.925Z,8.52
2022-12-31T13:46:50.900Z,8.50
2022-12-31T13:49:29.066Z,8.48
2022-12-31T13:52:09.088Z,8.48
2022-12-31T13:54:46.402Z,8.48
2022-12-31T13:57:39.982Z,8.42
2022-12-31T14:00:23.220Z,8.33
2022-12-31T14:03:08.259Z,8.25
2022-12-31T14:05:44.888Z,8.15
2022-12-31T14:08:14.974Z,8.04
2022-12-31T14:10:59.527Z,7.96
2022-12-31T14:13:52.339Z,7.88
2022-12-31T14:16:34.545Z,7.84
2022-12-31T14:19:15.736Z,7.76
2022-12-31T14:21:53.430Z,7.65
2022-12-31T14:24:39.099Z,7.54
2022-12-31T14:27:16.727Z,7.45
2022-12-31T14:29:52.259Z,7.31
2022-12-31T14:33:16.716Z,7.19
2022-12-31T14:36:12.288Z,7.06
2022-12-31T14:38:58.644Z,6.83
2022-12-31T14:41:48.636Z,6.64
2022-12-31T14:44:42.684Z,6.55
2022-12-31T14:47:33.935Z,6.44
2022-12-31T14:50:12.977Z,6.34
2022-12-31T14:52:54.369Z,6.25
2022-12-31T14:55:31.216Z,6.14
2022-12-31T14:58:27.573Z,6.05
2022-12-31T15:00:58.582Z,5.92
2022-12-31T15:03:45.087Z,5.82
2022-12-31T15:06:44.423Z,5.72
2022-12-31T15:09:44.355Z,5.61
2022-12-31T15:12:41.402Z,5.42
2022-12-31T15:15:33.628Z,5.31
2022-12-31T15:18:29.415Z,5.19
2022-12-31T15:21:45.400Z,4.96
2022-12-31T15:24:24.574Z,4.77
2022-12-31T15:26:57.263Z,4.70
2022-12-31T15:29:32.256Z,4.60
2022-12-31T15:32:06.017Z,4.44
2022-12-31T15:34:39.447Z,4.32
2022-12-31T15:37:32.003Z,4.20
2022-12-31T15:40:20.761Z,4.15
2022-12-31T15:42:56.802Z,4.08
2022-12-31T15:45:34.218Z,3.98
2022-12-31T15:48:10.147Z,3.85
2022-12-31T15:51:53.768Z,3.69
2022-12-31T15:54:37.624Z,3.61
2022-12-31T15:57:13.409Z,3.51
2022-12-31T15:59:43.843Z,3.46
2022-12-31T16:02:23.696Z,3.39
2022-12-31T16:04:55.066Z,3.36
2022-12-31T16:07:28.082Z,3.30
2022-12-31T16:10:00.925Z,3.18
2022-12-31T16:12:38.241Z,3.13
2022-12-31T16:15:26.283Z,3.15
2022-12-31T16:18:10.627Z,3.09
2022-12-31T16:20:48.785Z,3.08
2022-12-31T16:23:25.280Z,2.96
2022-12-31T16:25:59.937Z,2.80
2022-12-31T16:28:33.867Z,2.67
2022-12-31T16:31:06.971Z,2.68
2022-12-31T16:33:37.103Z,2.63
2022-12-31T16:36:07.948Z,2.59
2022-12-31T16:38:40.957Z,2.53
2022-12-31T16:41:20.245Z,2.43
2022-12-31T16:43:51.244Z,2.41
2022-12-31T16:46:27.237Z,2.42
2022-12-31T16:49:01.705Z,2.39
2022-12-31T16:51:35.853Z,2.33
2022-12-31T16:54:07.615Z,2.25
2022-12-31T16:56:41.242Z,2.22
2022-12-31T16:59:24.124Z,2.13
2022-12-31T17:01:56.265Z,2.03
2022-12-31T17:04:27.305Z,1.96
2022-12-31T17:06:57.423Z,1.90
2022-12-31T17:09:36.885Z,1.85
2022-12-31T17:12:17.997Z,1.81
2022-12-31T17:14:52.578Z,1.81
2022-12-31T17:17:26.816Z,1.77
2022-12-31T17:20:01.225Z,1.72
2022-12-31T17:22:37.196Z,1.68
2022-12-31T17:25:25.364Z,1.61
2022-12-31T17:27:59.307Z,1.65
2022-12-31T17:30:41.881Z,1.78
2022-12-31T17:33:32.023Z,1.78
2022-12-31T17:36:23.929Z,1.69
2022-12-31T17:38:53.816Z,1.58
2022-12-31T17:41:29.884Z,1.51
2022-12-31T17:44:00.448Z,1.47
2022-12-31T17:46:41.618Z,1.41
2022-12-31T17:49:15.561Z,1.39
2022-12-31T17:51:47.743Z,1.39
2022-12-31T17:54:18.763Z,1.42
2022-12-31T17:56:50.690Z,1.48
2022-12-31T17:59:24.140Z,1.53
2022-12-31T18:01:54.303Z,1.48
2022-12-31T18:04:24.237Z,1.45
2022-12-31T18:06:54.082Z,1.39
2022-12-31T18:09:23.929Z,1.29
2022-12-31T18:11:59.730Z,1.22
2022-12-31T18:14:31.391Z,1.15
2022-12-31T18:17:01.218Z,1.13
2022-12-31T18:20:03.088Z,1.09
2022-12-31T18:22:21.324Z,1.06
2022-12-31T18:24:55.660Z,1.07
2022-12-31T18:27:27.126Z,1.03
2022-12-31T18:30:04.130Z,1.04
2022-12-31T18:32:36.185Z,1.08
2022-12-31T18:35:07.553Z,1.15
2022-12-31T18:37:38.107Z,1.18
2022-12-31T18:40:09.626Z,1.11
2022-12-31T18:42:42.202Z,0.97
2022-12-31T18:45:19.240Z,0.89
2022-12-31T18:47:49.524Z,0.83
2022-12-31T18:51:52.598Z,0.97
2022-12-31T18:54:23.063Z,1.05
2022-12-31T18:56:57.067Z,1.05
2022-12-31T18:59:27.345Z,1.02
2022-12-31T19:01:57.266Z,1.04
2022-12-31T19:04:28.439Z,1.06
2022-12-31T19:07:00.177Z,0.93
2022-12-31T19:09:45.175Z,0.81
2022-12-31T19:12:18.121Z,0.68
2022-12-31T19:14:48.054Z,0.64
2022-12-31T19:17:17.945Z,0.71
2022-12-31T19:19:47.963Z,0.77
2022-12-31T19:22:19.613Z,0.80
2022-12-31T19:24:49.548Z,0.78
2022-12-31T19:27:19.530Z,0.76
2022-12-31T19:29:49.456Z,0.68
2022-12-31T19:32:19.335Z,0.61
2022-12-31T19:34:49.279Z,0.54
2022-12-31T19:37:20.802Z,0.52
2022-12-31T19:39:50.805Z,0.52
2022-12-31T19:42:20.861Z,0.49
2022-12-31T19:44:50.866Z,0.48
2022-12-31T19:47:20.748Z,0.57
2022-12-31T19:49:50.936Z,0.61
2022-12-31T19:52:22.395Z,0.62
2022-12-31T19:54:52.351Z,0.52
2022-12-31T19:57:22.167Z,0.38
2022-12-31T19:59:51.944Z,0.33
2022-12-31T20:02:22.096Z,0.37
2022-12-31T20:04:51.968Z,0.40
2022-12-31T20:07:27.093Z,0.46
2022-12-31T20:09:57.319Z,0.46
2022-12-31T20:12:27.452Z,0.44
2022-12-31T20:14:57.422Z,0.47
2022-12-31T20:17:28.224Z,0.47
2022-12-31T20:19:58.212Z,0.43
2022-12-31T20:22:29.742Z,0.42
2022-12-31T20:24:59.702Z,0.44
2022-12-31T20:27:29.585Z,0.42
2022-12-31T20:29:59.499Z,0.42
2022-12-31T20:32:29.460Z,0.45
2022-12-31T20:34:59.474Z,0.47
2022-12-31T20:37:30.867Z,0.47
2022-12-31T20:40:00.820Z,0.41
2022-12-31T20:42:30.554Z,0.36
2022-12-31T20:45:00.508Z,0.42
2022-12-31T20:47:30.303Z,0.45
2022-12-31T20:50:15.485Z,0.44
2022-12-31T20:52:47.602Z,0.37
2022-12-31T20:55:18.458Z,0.30
2022-12-31T20:57:48.422Z,0.28
2022-12-31T21:00:19.778Z,0.21
2022-12-31T21:02:57.899Z,0.12
2022-12-31T21:05:34.523Z,0.06
2022-12-31T21:08:11.003Z,0.02
2022-12-31T21:10:41.339Z,0.02
2022-12-31T21:13:10.199Z,0.06
2022-12-31T21:15:40.115Z,0.10
2022-12-31T21:18:10.785Z,0.07
2022-12-31T21:20:40.562Z,0.03
2022-12-31T21:23:12.027Z,0.07
2022-12-31T21:25:42.262Z,0.06
2022-12-31T21:28:12.641Z,-0.01
2022-12-31T21:30:43.340Z,-0.08
2022-12-31T21:33:13.477Z,-0.11
2022-12-31T21:35:51.668Z,-0.11
2022-12-31T21:38:25.402Z,-0.02
2022-12-31T21:40:55.875Z,0.07
2022-12-31T21:43:25.880Z,0.06
2022-12-31T21:46:03.857Z,-0.02
2022-12-31T21:52:08.029Z,-0.01
2022-12-31T21:54:55.166Z,-0.08
2022-12-31T21:57:25.182Z,-0.15
2022-12-31T22:00:40.274Z,-0.23
2022-12-31T22:03:19.904Z,-0.21
2022-12-31T22:05:53.596Z,-0.11
2022-12-31T22:08:26.055Z,-0.08
2022-12-31T22:10:55.852Z,-0.12
2022-12-31T22:13:26.066Z,-0.22
2022-12-31T22:16:04.398Z,-0.27
2022-12-31T22:18:39.005Z,-0.24
2022-12-31T22:21:18.286Z,-0.21
2022-12-31T22:23:52.360Z,-0.24
2022-12-31T22:26:27.884Z,-0.30
2022-12-31T22:29:00.210Z,-0.31
2022-12-31T22:31:32.261Z,-0.33
2022-12-31T22:34:02.305Z,-0.34
2022-12-31T22:36:32.135Z,-0.30
2022-12-31T22:39:03.527Z,-0.36
2022-12-31T22:41:33.384Z,-0.39
2022-12-31T22:44:05.166Z,-0.42
2022-12-31T22:46:36.118Z,-0.40
2022-12-31T22:49:07.455Z,-0.39
2022-12-31T22:51:57.254Z,-0.44
2022-12-31T22:54:28.789Z,-0.50
2022-12-31T22:56:58.636Z,-0.54
2022-12-31T22:59:28.602Z,-0.48
2022-12-31T23:01:58.440Z,-0.48
2022-12-31T23:04:28.610Z,-0.49
2022-12-31T23:06:58.643Z,-0.43
2022-12-31T23:09:47.463Z,-0.35
2022-12-31T23:12:17.423Z,-0.38
2022-12-31T23:15:04.342Z,-0.40
2022-12-31T23:17:51.525Z,-0.45
2022-12-31T23:20:41.786Z,-0.48
2022-12-31T23:23:17.466Z,-0.48
2022-12-31T23:25:51.242Z,-0.55
2022-12-31T23:28:24.198Z,-0.53
2022-12-31T23:30:54.783Z,-0.46
2022-12-31T23:33:27.157Z,-0.42
2022-12-31T23:36:05.889Z,-0.55
2022-12-31T23:38:35.755Z,-0.63
2022-12-31T23:41:16.235Z,-0.63
2022-12-31T23:43:46.841Z,-0.61
2022-12-31T23:46:18.130Z,-0.63
2022-12-31T23:48:48.151Z,-0.67
2022-12-31T23:51:17.936Z,-0.69
2022-12-31T23:53:47.788Z,-0.70
2022-12-31T23:56:23.924Z,-0.61
2022-12-31T23:58:56.883Z,-0.53
